sensor_id;sensor_type;location;lat;lon;timestamp;pressure;altitude;pressure_sealevel;temperature;humidity
51333;BME280;37417;48.118;11.734;2023-05-25T00:01:37;95708.00;;;9.26;100.00
51333;BME280;37417;48.118;11.734;2023-05-25T00:04:22;95721.00;;;9.11;100.00
51333;BME280;37417;48.118;11.734;2023-05-25T00:07:11;95714.81;;;8.98;100.00
51333;BME280;37417;48.118;11.734;2023-05-25T00:09:56;95715.00;;;8.96;100.00
51333;BME280;37417;48.118;11.734;2023-05-25T00:12:42;95732.13;;;9.05;100.00
51333;BME280;37417;48.118;11.734;2023-05-25T00:15:28;95729.44;;;8.99;100.00
51333;BME280;37417;48.118;11.734;2023-05-25T00:18:13;95736.25;;;9.00;100.00
51333;BME280;37417;48.118;11.734;2023-05-25T00:20:59;95722.00;;;9.10;100.00
51333;BME280;37417;48.118;11.734;2023-05-25T00:23:50;95721.00;;;9.26;100.00
51333;BME280;37417;48.118;11.734;2023-05-25T00:26:36;95727.28;;;9.32;100.00
51333;BME280;37417;48.118;11.734;2023-05-25T00:29:22;95726.94;;;9.35;100.00
51333;BME280;37417;48.118;11.734;2023-05-25T00:32:07;95721.28;;;9.31;100.00
51333;BME280;37417;48.118;11.734;2023-05-25T00:34:53;95711.75;;;9.38;100.00
51333;BME280;37417;48.118;11.734;2023-05-25T00:37:39;95716.25;;;9.44;100.00
51333;BME280;37417;48.118;11.734;2023-05-25T00:40:25;95712.03;;;9.43;100.00
51333;BME280;37417;48.118;11.734;2023-05-25T00:43:11;95712.56;;;9.39;100.00
51333;BME280;37417;48.118;11.734;2023-05-25T00:45:57;95713.75;;;9.36;100.00
51333;BME280;37417;48.118;11.734;2023-05-25T00:48:44;95716.97;;;9.38;100.00
51333;BME280;37417;48.118;11.734;2023-05-25T00:51:30;95712.13;;;9.35;100.00
51333;BME280;37417;48.118;11.734;2023-05-25T00:54:20;95697.66;;;9.33;100.00
51333;BME280;37417;48.118;11.734;2023-05-25T00:57:07;95703.25;;;9.30;100.00
51333;BME280;37417;48.118;11.734;2023-05-25T00:59:54;95700.44;;;9.31;100.00
51333;BME280;37417;48.118;11.734;2023-05-25T01:02:43;95705.66;;;9.31;100.00
51333;BME280;37417;48.118;11.734;2023-05-25T01:05:30;95710.78;;;9.25;100.00
51333;BME280;37417;48.118;11.734;2023-05-25T01:08:19;95703.41;;;9.43;100.00
51333;BME280;37417;48.118;11.734;2023-05-25T01:11:10;95716.94;;;9.53;100.00
51333;BME280;37417;48.118;11.734;2023-05-25T01:13:57;95722.91;;;9.47;100.00
51333;BME280;37417;48.118;11.734;2023-05-25T01:16:43;95711.03;;;9.44;100.00
51333;BME280;37417;48.118;11.734;2023-05-25T01:19:29;95710.03;;;9.45;100.00
51333;BME280;37417;48.118;11.734;2023-05-25T01:22:27;95714.25;;;9.46;100.00
51333;BME280;37417;48.118;11.734;2023-05-25T01:25:30;95712.56;;;9.39;100.00
51333;BME280;37417;48.118;11.734;2023-05-25T01:28:24;95713.66;;;9.30;100.00
51333;BME280;37417;48.118;11.734;2023-05-25T01:31:13;95711.41;;;9.27;100.00
51333;BME280;37417;48.118;11.734;2023-05-25T01:34:00;95707.25;;;9.32;100.00
51333;BME280;37417;48.118;11.734;2023-05-25T01:36:45;95718.97;;;9.21;100.00
51333;BME280;37417;48.118;11.734;2023-05-25T01:39:31;95711.88;;;9.15;100.00
51333;BME280;37417;48.118;11.734;2023-05-25T01:42:17;95714.81;;;9.12;100.00
51333;BME280;37417;48.118;11.734;2023-05-25T01:45:03;95717.41;;;9.12;100.00
51333;BME280;37417;48.118;11.734;2023-05-25T01:48:15;95709.97;;;9.09;100.00
51333;BME280;37417;48.118;11.734;2023-05-25T01:51:13;95721.63;;;9.13;100.00
51333;BME280;37417;48.118;11.734;2023-05-25T01:54:20;95723.44;;;9.13;100.00
51333;BME280;37417;48.118;11.734;2023-05-25T01:57:11;95729.53;;;9.20;100.00
51333;BME280;37417;48.118;11.734;2023-05-25T01:59:57;95733.84;;;9.28;100.00
51333;BME280;37417;48.118;11.734;2023-05-25T02:02:46;95735.38;;;9.37;100.00
51333;BME280;37417;48.118;11.734;2023-05-25T02:05:33;95742.66;;;9.41;100.00
51333;BME280;37417;48.118;11.734;2023-05-25T02:08:18;95735.53;;;9.50;100.00
51333;BME280;37417;48.118;11.734;2023-05-25T02:11:05;95734.63;;;9.58;100.00
51333;BME280;37417;48.118;11.734;2023-05-25T02:13:51;95736.50;;;9.64;100.00
51333;BME280;37417;48.118;11.734;2023-05-25T02:16:37;95734.16;;;9.69;100.00
51333;BME280;37417;48.118;11.734;2023-05-25T02:19:22;95725.97;;;9.72;100.00
51333;BME280;37417;48.118;11.734;2023-05-25T02:22:08;95721.47;;;9.81;100.00
51333;BME280;37417;48.118;11.734;2023-05-25T02:24:54;95718.03;;;9.95;100.00
51333;BME280;37417;48.118;11.734;2023-05-25T02:27:39;95713.44;;;9.97;100.00
51333;BME280;37417;48.118;11.734;2023-05-25T02:30:25;95709.72;;;10.06;100.00
51333;BME280;37417;48.118;11.734;2023-05-25T02:33:11;95718.16;;;10.08;100.00
51333;BME280;37417;48.118;11.734;2023-05-25T02:35:58;95713.19;;;10.13;100.00
51333;BME280;37417;48.118;11.734;2023-05-25T02:38:44;95718.94;;;10.23;100.00
51333;BME280;37417;48.118;11.734;2023-05-25T02:41:31;95716.06;;;10.18;100.00
51333;BME280;37417;48.118;11.734;2023-05-25T02:44:17;95719.72;;;10.24;100.00
51333;BME280;37417;48.118;11.734;2023-05-25T02:47:02;95721.66;;;10.37;100.00
51333;BME280;37417;48.118;11.734;2023-05-25T02:49:48;95718.06;;;10.38;100.00
51333;BME280;37417;48.118;11.734;2023-05-25T02:52:33;95725.91;;;10.38;100.00
51333;BME280;37417;48.118;11.734;2023-05-25T02:55:19;95727.50;;;10.39;100.00
51333;BME280;37417;48.118;11.734;2023-05-25T02:58:05;95730.53;;;10.42;100.00
51333;BME280;37417;48.118;11.734;2023-05-25T03:00:51;95728.31;;;10.39;100.00
51333;BME280;37417;48.118;11.734;2023-05-25T03:03:38;95736.81;;;10.48;100.00
51333;BME280;37417;48.118;11.734;2023-05-25T03:06:24;95726.13;;;10.43;100.00
51333;BME280;37417;48.118;11.734;2023-05-25T03:09:10;95725.75;;;10.46;100.00
51333;BME280;37417;48.118;11.734;2023-05-25T03:11:56;95715.09;;;10.41;100.00
51333;BME280;37417;48.118;11.734;2023-05-25T03:14:42;95719.25;;;10.35;100.00
51333;BME280;37417;48.118;11.734;2023-05-25T03:17:28;95712.63;;;10.33;100.00
51333;BME280;37417;48.118;11.734;2023-05-25T03:20:13;95723.66;;;10.35;100.00
51333;BME280;37417;48.118;11.734;2023-05-25T03:23:01;95720.78;;;10.29;100.00
51333;BME280;37417;48.118;11.734;2023-05-25T03:25:46;95726.06;;;10.36;100.00
51333;BME280;37417;48.118;11.734;2023-05-25T03:28:32;95735.13;;;10.40;100.00
51333;BME280;37417;48.118;11.734;2023-05-25T03:31:17;95742.16;;;10.40;100.00
51333;BME280;37417;48.118;11.734;2023-05-25T03:34:03;95737.44;;;10.50;100.00
51333;BME280;37417;48.118;11.734;2023-05-25T03:36:49;95731.84;;;10.53;100.00
51333;BME280;37417;48.118;11.734;2023-05-25T03:39:36;95728.72;;;10.64;100.00
51333;BME280;37417;48.118;11.734;2023-05-25T03:42:21;95718.25;;;10.57;100.00
51333;BME280;37417;48.118;11.734;2023-05-25T03:45:07;95717.09;;;10.67;100.00
51333;BME280;37417;48.118;11.734;2023-05-25T03:47:53;95715.09;;;10.69;100.00
51333;BME280;37417;48.118;11.734;2023-05-25T03:50:39;95725.97;;;10.72;100.00
51333;BME280;37417;48.118;11.734;2023-05-25T03:53:25;95719.19;;;10.78;100.00
51333;BME280;37417;48.118;11.734;2023-05-25T03:56:10;95725.47;;;10.83;100.00
51333;BME280;37417;48.118;11.734;2023-05-25T03:58:56;95726.38;;;10.97;100.00
51333;BME280;37417;48.118;11.734;2023-05-25T04:01:42;95730.75;;;10.90;100.00
51333;BME280;37417;48.118;11.734;2023-05-25T04:04:27;95729.72;;;10.91;100.00
51333;BME280;37417;48.118;11.734;2023-05-25T04:07:14;95732.00;;;11.01;100.00
51333;BME280;37417;48.118;11.734;2023-05-25T04:10:00;95745.44;;;10.98;100.00
51333;BME280;37417;48.118;11.734;2023-05-25T04:12:45;95740.03;;;10.99;100.00
51333;BME280;37417;48.118;11.734;2023-05-25T04:15:31;95737.16;;;11.22;100.00
51333;BME280;37417;48.118;11.734;2023-05-25T04:18:19;95733.97;;;11.27;100.00
51333;BME280;37417;48.118;11.734;2023-05-25T04:21:04;95725.97;;;11.28;100.00
51333;BME280;37417;48.118;11.734;2023-05-25T04:23:50;95733.31;;;11.18;100.00
51333;BME280;37417;48.118;11.734;2023-05-25T04:26:36;95732.56;;;11.24;100.00
51333;BME280;37417;48.118;11.734;2023-05-25T04:29:23;95742.81;;;11.26;100.00
51333;BME280;37417;48.118;11.734;2023-05-25T04:32:09;95739.25;;;11.33;100.00
51333;BME280;37417;48.118;11.734;2023-05-25T04:34:55;95739.72;;;11.50;100.00
51333;BME280;37417;48.118;11.734;2023-05-25T04:37:41;95743.94;;;11.51;100.00
51333;BME280;37417;48.118;11.734;2023-05-25T04:40:26;95734.78;;;11.69;100.00
51333;BME280;37417;48.118;11.734;2023-05-25T04:43:12;95729.19;;;11.78;100.00
51333;BME280;37417;48.118;11.734;2023-05-25T04:46:02;95732.59;;;11.72;100.00
51333;BME280;37417;48.118;11.734;2023-05-25T04:48:49;95738.09;;;11.90;100.00
51333;BME280;37417;48.118;11.734;2023-05-25T04:51:35;95727.06;;;11.88;100.00
51333;BME280;37417;48.118;11.734;2023-05-25T04:54:21;95736.16;;;12.06;100.00
51333;BME280;37417;48.118;11.734;2023-05-25T04:57:07;95738.34;;;12.02;100.00
51333;BME280;37417;48.118;11.734;2023-05-25T04:59:53;95738.75;;;11.99;100.00
51333;BME280;37417;48.118;11.734;2023-05-25T05:02:39;95752.41;;;11.95;100.00
51333;BME280;37417;48.118;11.734;2023-05-25T05:05:24;95751.47;;;12.22;100.00
51333;BME280;37417;48.118;11.734;2023-05-25T05:08:10;95750.63;;;12.02;100.00
51333;BME280;37417;48.118;11.734;2023-05-25T05:10:56;95753.25;;;12.15;100.00
51333;BME280;37417;48.118;11.734;2023-05-25T05:13:41;95755.72;;;12.36;100.00
51333;BME280;37417;48.118;11.734;2023-05-25T05:16:27;95756.97;;;12.47;100.00
51333;BME280;37417;48.118;11.734;2023-05-25T05:19:18;95752.16;;;12.64;100.00
51333;BME280;37417;48.118;11.734;2023-05-25T05:22:03;95756.97;;;12.60;100.00
51333;BME280;37417;48.118;11.734;2023-05-25T05:24:49;95751.94;;;12.45;100.00
51333;BME280;37417;48.118;11.734;2023-05-25T05:27:35;95748.53;;;12.65;100.00
51333;BME280;37417;48.118;11.734;2023-05-25T05:30:21;95755.53;;;12.38;100.00
51333;BME280;37417;48.118;11.734;2023-05-25T05:33:06;95760.56;;;12.39;100.00
51333;BME280;37417;48.118;11.734;2023-05-25T05:35:52;95760.59;;;12.53;100.00
51333;BME280;37417;48.118;11.734;2023-05-25T05:38:39;95763.44;;;12.78;100.00
51333;BME280;37417;48.118;11.734;2023-05-25T05:41:27;95759.59;;;12.73;100.00
51333;BME280;37417;48.118;11.734;2023-05-25T05:44:12;95767.06;;;12.70;100.00
51333;BME280;37417;48.118;11.734;2023-05-25T05:46:58;95769.84;;;12.68;100.00
51333;BME280;37417;48.118;11.734;2023-05-25T05:49:47;95774.28;;;12.94;100.00
51333;BME280;37417;48.118;11.734;2023-05-25T05:52:33;95767.66;;;12.92;100.00
51333;BME280;37417;48.118;11.734;2023-05-25T05:55:18;95773.69;;;12.86;100.00
51333;BME280;37417;48.118;11.734;2023-05-25T05:58:05;95771.06;;;13.12;100.00
51333;BME280;37417;48.118;11.734;2023-05-25T06:00:52;95774.50;;;13.26;100.00
51333;BME280;37417;48.118;11.734;2023-05-25T06:03:38;95778.53;;;13.02;100.00
51333;BME280;37417;48.118;11.734;2023-05-25T06:06:24;95774.28;;;12.94;100.00
51333;BME280;37417;48.118;11.734;2023-05-25T06:09:10;95778.13;;;12.79;100.00
51333;BME280;37417;48.118;11.734;2023-05-25T06:11:56;95783.97;;;12.87;100.00
51333;BME280;37417;48.118;11.734;2023-05-25T06:14:41;95789.81;;;12.69;100.00
51333;BME280;37417;48.118;11.734;2023-05-25T06:17:27;95791.63;;;12.69;100.00
51333;BME280;37417;48.118;11.734;2023-05-25T06:20:14;95788.38;;;12.67;100.00
51333;BME280;37417;48.118;11.734;2023-05-25T06:22:59;95796.03;;;12.68;100.00
51333;BME280;37417;48.118;11.734;2023-05-25T06:25:45;95793.81;;;12.72;100.00
51333;BME280;37417;48.118;11.734;2023-05-25T06:28:32;95797.25;;;12.66;100.00
51333;BME280;37417;48.118;11.734;2023-05-25T06:31:18;95800.47;;;12.68;100.00
51333;BME280;37417;48.118;11.734;2023-05-25T06:34:03;95794.25;;;12.82;100.00
51333;BME280;37417;48.118;11.734;2023-05-25T06:36:49;95798.06;;;12.93;100.00
51333;BME280;37417;48.118;11.734;2023-05-25T06:39:35;95804.72;;;12.95;100.00
51333;BME280;37417;48.118;11.734;2023-05-25T06:42:21;95808.53;;;12.86;100.00
51333;BME280;37417;48.118;11.734;2023-05-25T06:45:07;95800.69;;;12.99;100.00
51333;BME280;37417;48.118;11.734;2023-05-25T06:47:53;95798.28;;;12.98;100.00
51333;BME280;37417;48.118;11.734;2023-05-25T06:50:39;95807.16;;;13.04;100.00
51333;BME280;37417;48.118;11.734;2023-05-25T06:53:25;95819.66;;;13.28;100.00
51333;BME280;37417;48.118;11.734;2023-05-25T06:56:11;95825.25;;;13.58;100.00
51333;BME280;37417;48.118;11.734;2023-05-25T06:58:56;95823.06;;;13.48;100.00
51333;BME280;37417;48.118;11.734;2023-05-25T07:01:42;95826.25;;;13.64;100.00
51333;BME280;37417;48.118;11.734;2023-05-25T07:04:27;95823.06;;;13.42;100.00
51333;BME280;37417;48.118;11.734;2023-05-25T07:07:13;95819.66;;;13.35;100.00
51333;BME280;37417;48.118;11.734;2023-05-25T07:10:01;95829.13;;;13.36;100.00
51333;BME280;37417;48.118;11.734;2023-05-25T07:12:47;95813.97;;;13.51;100.00
51333;BME280;37417;48.118;11.734;2023-05-25T07:15:33;95827.19;;;13.89;100.00
51333;BME280;37417;48.118;11.734;2023-05-25T07:18:18;95826.66;;;13.74;100.00
51333;BME280;37417;48.118;11.734;2023-05-25T07:21:04;95823.25;;;13.60;100.00
51333;BME280;37417;48.118;11.734;2023-05-25T07:23:50;95828.63;;;13.85;100.00
51333;BME280;37417;48.118;11.734;2023-05-25T07:26:35;95825.06;;;13.66;100.00
51333;BME280;37417;48.118;11.734;2023-05-25T07:29:22;95831.88;;;13.80;100.00
51333;BME280;37417;48.118;11.734;2023-05-25T07:32:07;95828.66;;;13.78;100.00
51333;BME280;37417;48.118;11.734;2023-05-25T07:34:53;95829.06;;;13.75;100.00
51333;BME280;37417;48.118;11.734;2023-05-25T07:37:39;95824.41;;;14.29;100.00
51333;BME280;37417;48.118;11.734;2023-05-25T07:40:25;95831.06;;;14.38;100.00
51333;BME280;37417;48.118;11.734;2023-05-25T07:43:11;95832.44;;;14.47;100.00
51333;BME280;37417;48.118;11.734;2023-05-25T07:45:57;95827.31;;;14.66;100.00
51333;BME280;37417;48.118;11.734;2023-05-25T07:48:42;95843.94;;;14.53;100.00
51333;BME280;37417;48.118;11.734;2023-05-25T07:51:29;95835.50;;;14.82;100.00
51333;BME280;37417;48.118;11.734;2023-05-25T07:54:15;95840.75;;;14.82;100.00
51333;BME280;37417;48.118;11.734;2023-05-25T07:57:01;95843.63;;;14.99;100.00
51333;BME280;37417;48.118;11.734;2023-05-25T07:59:47;95839.38;;;15.30;100.00
51333;BME280;37417;48.118;11.734;2023-05-25T08:02:33;95845.38;;;15.37;100.00
51333;BME280;37417;48.118;11.734;2023-05-25T08:05:18;95843.13;;;15.15;100.00
51333;BME280;37417;48.118;11.734;2023-05-25T08:08:04;95849.41;;;15.64;100.00
51333;BME280;37417;48.118;11.734;2023-05-25T08:10:50;95853.69;;;16.02;100.00
51333;BME280;37417;48.118;11.734;2023-05-25T08:13:36;95850.00;;;16.40;100.00
51333;BME280;37417;48.118;11.734;2023-05-25T08:16:21;95854.94;;;16.36;100.00
51333;BME280;37417;48.118;11.734;2023-05-25T08:19:07;95852.81;;;16.27;100.00
51333;BME280;37417;48.118;11.734;2023-05-25T08:21:53;95872.97;;;15.96;100.00
51333;BME280;37417;48.118;11.734;2023-05-25T08:24:39;95862.72;;;15.69;100.00
51333;BME280;37417;48.118;11.734;2023-05-25T08:27:24;95867.75;;;15.46;100.00
51333;BME280;37417;48.118;11.734;2023-05-25T08:30:10;95875.28;;;15.67;100.00
51333;BME280;37417;48.118;11.734;2023-05-25T08:32:56;95874.47;;;15.67;100.00
51333;BME280;37417;48.118;11.734;2023-05-25T08:35:42;95863.81;;;15.55;100.00
51333;BME280;37417;48.118;11.734;2023-05-25T08:38:27;95861.22;;;15.98;100.00
51333;BME280;37417;48.118;11.734;2023-05-25T08:41:13;95861.88;;;15.94;100.00
51333;BME280;37417;48.118;11.734;2023-05-25T08:43:59;95867.00;;;16.25;100.00
51333;BME280;37417;48.118;11.734;2023-05-25T08:46:51;95870.66;;;16.24;100.00
51333;BME280;37417;48.118;11.734;2023-05-25T08:49:38;95875.28;;;15.67;100.00
51333;BME280;37417;48.118;11.734;2023-05-25T08:52:27;95880.97;;;15.64;100.00
51333;BME280;37417;48.118;11.734;2023-05-25T08:55:14;95881.59;;;15.60;100.00
51333;BME280;37417;48.118;11.734;2023-05-25T08:58:09;95875.72;;;15.58;100.00
51333;BME280;37417;48.118;11.734;2023-05-25T09:01:02;95883.28;;;16.34;100.00
51333;BME280;37417;48.118;11.734;2023-05-25T09:03:49;95890.56;;;15.77;100.00
51333;BME280;37417;48.118;11.734;2023-05-25T09:06:35;95893.78;;;15.79;100.00
51333;BME280;37417;48.118;11.734;2023-05-25T09:09:21;95887.66;;;15.35;100.00
51333;BME280;37417;48.118;11.734;2023-05-25T09:12:07;95888.34;;;15.49;100.00
51333;BME280;37417;48.118;11.734;2023-05-25T09:14:54;95891.22;;;15.73;100.00
51333;BME280;37417;48.118;11.734;2023-05-25T09:17:39;95891.09;;;15.86;100.00
51333;BME280;37417;48.118;11.734;2023-05-25T09:20:25;95900.59;;;15.87;100.00
51333;BME280;37417;48.118;11.734;2023-05-25T09:23:16;95893.00;;;16.15;100.00
51333;BME280;37417;48.118;11.734;2023-05-25T09:26:01;95899.94;;;15.91;100.00
51333;BME280;37417;48.118;11.734;2023-05-25T09:28:47;95902.81;;;16.08;100.00
51333;BME280;37417;48.118;11.734;2023-05-25T09:31:33;95905.09;;;16.05;100.00
51333;BME280;37417;48.118;11.734;2023-05-25T09:34:20;95913.31;;;15.90;100.00
51333;BME280;37417;48.118;11.734;2023-05-25T09:37:13;95911.13;;;15.87;100.00
51333;BME280;37417;48.118;11.734;2023-05-25T09:39:59;95907.63;;;16.48;100.00
51333;BME280;37417;48.118;11.734;2023-05-25T09:42:44;95911.69;;;15.89;100.00
51333;BME280;37417;48.118;11.734;2023-05-25T09:45:30;95921.16;;;16.15;100.00
51333;BME280;37417;48.118;11.734;2023-05-25T09:48:16;95915.19;;;16.44;100.00
51333;BME280;37417;48.118;11.734;2023-05-25T09:51:02;95917.25;;;16.91;100.00
51333;BME280;37417;48.118;11.734;2023-05-25T09:53:48;95917.50;;;17.31;100.00
51333;BME280;37417;48.118;11.734;2023-05-25T09:56:34;95915.94;;;17.42;100.00
51333;BME280;37417;48.118;11.734;2023-05-25T09:59:21;95920.75;;;17.03;100.00
51333;BME280;37417;48.118;11.734;2023-05-25T10:02:08;95920.06;;;17.49;100.00
51333;BME280;37417;48.118;11.734;2023-05-25T10:04:53;95917.81;;;17.65;100.00
51333;BME280;37417;48.118;11.734;2023-05-25T10:07:39;95914.97;;;18.13;100.00
51333;BME280;37417;48.118;11.734;2023-05-25T10:10:26;95914.41;;;18.11;100.00
51333;BME280;37417;48.118;11.734;2023-05-25T10:13:13;95916.09;;;18.29;100.00
51333;BME280;37417;48.118;11.734;2023-05-25T10:16:00;95925.16;;;18.45;100.00
51333;BME280;37417;48.118;11.734;2023-05-25T10:19:00;95913.72;;;17.92;100.00
51333;BME280;37417;48.118;11.734;2023-05-25T10:21:58;95915.44;;;17.75;100.00
51333;BME280;37417;48.118;11.734;2023-05-25T10:25:19;95918.63;;;17.65;100.00
51333;BME280;37417;48.118;11.734;2023-05-25T10:28:16;95919.63;;;17.52;100.00
51333;BME280;37417;48.118;11.734;2023-05-25T10:31:04;95923.56;;;17.73;100.00
51333;BME280;37417;48.118;11.734;2023-05-25T10:33:50;95912.88;;;18.15;100.00
51333;BME280;37417;48.118;11.734;2023-05-25T10:36:36;95908.63;;;18.26;100.00
51333;BME280;37417;48.118;11.734;2023-05-25T10:39:22;95907.84;;;18.25;100.00
51333;BME280;37417;48.118;11.734;2023-05-25T10:42:09;95913.59;;;17.99;100.00
51333;BME280;37417;48.118;11.734;2023-05-25T10:44:57;95911.63;;;18.29;100.00
51333;BME280;37417;48.118;11.734;2023-05-25T10:47:44;95910.31;;;18.96;100.00
51333;BME280;37417;48.118;11.734;2023-05-25T10:50:34;95910.94;;;19.31;100.00
51333;BME280;37417;48.118;11.734;2023-05-25T10:53:20;95913.56;;;18.86;100.00
51333;BME280;37417;48.118;11.734;2023-05-25T10:56:07;95907.88;;;19.23;100.00
51333;BME280;37417;48.118;11.734;2023-05-25T10:58:54;95916.78;;;18.88;100.00
51333;BME280;37417;48.118;11.734;2023-05-25T11:01:49;95919.81;;;19.25;100.00
51333;BME280;37417;48.118;11.734;2023-05-25T11:04:36;95917.88;;;19.04;100.00
51333;BME280;37417;48.118;11.734;2023-05-25T11:07:21;95919.25;;;19.68;100.00
51333;BME280;37417;48.118;11.734;2023-05-25T11:10:07;95917.31;;;19.64;100.00
51333;BME280;37417;48.118;11.734;2023-05-25T11:12:53;95910.97;;;19.03;100.00
51333;BME280;37417;48.118;11.734;2023-05-25T11:15:38;95914.63;;;19.30;100.00
51333;BME280;37417;48.118;11.734;2023-05-25T11:18:36;95917.59;;;19.79;100.00
51333;BME280;37417;48.118;11.734;2023-05-25T11:21:24;95911.63;;;19.10;100.00
51333;BME280;37417;48.118;11.734;2023-05-25T11:24:25;95922.16;;;19.21;100.00
51333;BME280;37417;48.118;11.734;2023-05-25T11:27:11;95909.59;;;19.96;100.00
51333;BME280;37417;48.118;11.734;2023-05-25T11:29:58;95914.97;;;19.34;100.00
51333;BME280;37417;48.118;11.734;2023-05-25T11:32:48;95907.72;;;19.91;100.00
51333;BME280;37417;48.118;11.734;2023-05-25T11:35:35;95906.09;;;20.68;100.00
51333;BME280;37417;48.118;11.734;2023-05-25T11:38:23;95906.47;;;21.03;94.85
51333;BME280;37417;48.118;11.734;2023-05-25T11:41:22;95897.63;;;21.47;88.89
51333;BME280;37417;48.118;11.734;2023-05-25T11:44:08;95894.34;;;21.34;91.41
51333;BME280;37417;48.118;11.734;2023-05-25T11:46:55;95879.47;;;22.03;87.44
51333;BME280;37417;48.118;11.734;2023-05-25T11:49:45;95894.34;;;21.34;90.17
51333;BME280;37417;48.118;11.734;2023-05-25T11:52:32;95890.56;;;21.03;91.06
51333;BME280;37417;48.118;11.734;2023-05-25T11:55:17;95891.91;;;21.60;88.56
51333;BME280;37417;48.118;11.734;2023-05-25T11:58:03;95891.38;;;22.48;88.12
51333;BME280;37417;48.118;11.734;2023-05-25T12:00:49;95886.19;;;22.21;90.55
51333;BME280;37417;48.118;11.734;2023-05-25T12:03:35;95879.38;;;23.18;78.64
51333;BME280;37417;48.118;11.734;2023-05-25T12:06:25;95876.94;;;22.28;86.01
51333;BME280;37417;48.118;11.734;2023-05-25T12:09:11;95878.97;;;22.63;84.78
51333;BME280;37417;48.118;11.734;2023-05-25T12:11:57;95868.19;;;24.18;76.37
51333;BME280;37417;48.118;11.734;2023-05-25T12:14:48;95876.25;;;24.72;70.41
51333;BME280;37417;48.118;11.734;2023-05-25T12:17:34;95876.94;;;24.28;73.33
51333;BME280;37417;48.118;11.734;2023-05-25T12:20:20;95869.44;;;24.51;74.85
51333;BME280;37417;48.118;11.734;2023-05-25T12:23:06;95878.47;;;22.77;79.60
51333;BME280;37417;48.118;11.734;2023-05-25T12:26:08;95874.38;;;23.57;77.06
51333;BME280;37417;48.118;11.734;2023-05-25T12:29:02;95872.88;;;25.11;77.35
51333;BME280;37417;48.118;11.734;2023-05-25T12:31:48;95866.88;;;27.31;66.26
51333;BME280;37417;48.118;11.734;2023-05-25T12:34:34;95874.72;;;29.53;55.43
51333;BME280;37417;48.118;11.734;2023-05-25T12:37:20;95868.34;;;27.56;56.00
51333;BME280;37417;48.118;11.734;2023-05-25T12:40:19;95872.88;;;25.84;60.17
51333;BME280;37417;48.118;11.734;2023-05-25T12:43:05;95877.75;;;26.78;58.40
51333;BME280;37417;48.118;11.734;2023-05-25T12:45:51;95881.25;;;26.02;62.18
51333;BME280;37417;48.118;11.734;2023-05-25T12:48:37;95867.72;;;25.93;57.77
51333;BME280;37417;48.118;11.734;2023-05-25T12:51:22;95875.84;;;26.07;63.51
51333;BME280;37417;48.118;11.734;2023-05-25T12:54:10;95871.78;;;26.38;62.54
51333;BME280;37417;48.118;11.734;2023-05-25T12:56:55;95877.13;;;27.24;59.16
51333;BME280;37417;48.118;11.734;2023-05-25T12:59:45;95857.13;;;28.47;54.04
51333;BME280;37417;48.118;11.734;2023-05-25T13:02:31;95857.97;;;30.09;51.23
51333;BME280;37417;48.118;11.734;2023-05-25T13:05:25;95855.59;;;31.05;45.35
51333;BME280;37417;48.118;11.734;2023-05-25T13:08:11;95859.75;;;32.18;45.61
51333;BME280;37417;48.118;11.734;2023-05-25T13:10:56;95864.69;;;29.67;49.55
51333;BME280;37417;48.118;11.734;2023-05-25T13:13:42;95850.94;;;30.00;48.31
51333;BME280;37417;48.118;11.734;2023-05-25T13:16:32;95850.72;;;30.58;45.79
51333;BME280;37417;48.118;11.734;2023-05-25T13:19:19;95847.53;;;30.08;47.91
51333;BME280;37417;48.118;11.734;2023-05-25T13:22:05;95845.13;;;32.28;44.50
51333;BME280;37417;48.118;11.734;2023-05-25T13:24:51;95843.38;;;32.23;41.31
51333;BME280;37417;48.118;11.734;2023-05-25T13:27:37;95845.78;;;32.33;43.01
51333;BME280;37417;48.118;11.734;2023-05-25T13:30:25;95825.88;;;33.18;40.14
51333;BME280;37417;48.118;11.734;2023-05-25T13:33:11;95838.91;;;31.80;42.10
51333;BME280;37417;48.118;11.734;2023-05-25T13:35:56;95834.66;;;31.79;41.74
51333;BME280;37417;48.118;11.734;2023-05-25T13:38:42;95834.94;;;31.95;42.99
51333;BME280;37417;48.118;11.734;2023-05-25T13:41:29;95837.63;;;31.87;43.26
51333;BME280;37417;48.118;11.734;2023-05-25T13:44:15;95841.31;;;32.58;38.83
51333;BME280;37417;48.118;11.734;2023-05-25T13:47:01;95826.31;;;33.41;37.16
51333;BME280;37417;48.118;11.734;2023-05-25T13:49:47;95835.16;;;31.12;42.21
51333;BME280;37417;48.118;11.734;2023-05-25T13:52:32;95836.56;;;32.34;41.64
51333;BME280;37417;48.118;11.734;2023-05-25T13:55:18;95834.50;;;30.89;41.88
51333;BME280;37417;48.118;11.734;2023-05-25T13:58:04;95828.81;;;31.08;42.42
51333;BME280;37417;48.118;11.734;2023-05-25T14:00:49;95828.16;;;33.28;39.05
51333;BME280;37417;48.118;11.734;2023-05-25T14:03:36;95825.47;;;32.86;39.28
51333;BME280;37417;48.118;11.734;2023-05-25T14:06:21;95835.25;;;32.32;40.10
51333;BME280;37417;48.118;11.734;2023-05-25T14:09:08;95830.81;;;31.80;40.73
51333;BME280;37417;48.118;11.734;2023-05-25T14:11:54;95823.41;;;31.51;41.77
51333;BME280;37417;48.118;11.734;2023-05-25T14:14:40;95823.84;;;30.67;42.78
51333;BME280;37417;48.118;11.734;2023-05-25T14:17:25;95821.47;;;31.78;41.23
51333;BME280;37417;48.118;11.734;2023-05-25T14:20:11;95828.75;;;32.33;41.62
51333;BME280;37417;48.118;11.734;2023-05-25T14:23:00;95811.28;;;32.90;38.60
51333;BME280;37417;48.118;11.734;2023-05-25T14:25:46;95818.59;;;33.10;39.71